GLD1028 SBFN-SBIL
Flight info
| Callsign | GLD1028 |
|---|---|
| Flight time | 1h 56m |
| Altitude | 36000 |
| Route | OMNI EDVUP UN857 AMBET UZ14 AKPAS DCT TOLOG TOLO1A |
| Aircraft | B738/M-SDFGIRY/S |
Departure
| Time | 2026-04-20 13:41 |
|---|---|
| Airport | Fernando de Noronha Airport (SBFN) |
Arrival
| Time | 2026-04-20 15:37 |
|---|---|
| Airport | Bahia - Jorge Amado Airport (SBIL) |
| Time | Latitude | Longitude | Altitude | Speed | Heading |
|---|---|---|---|---|---|
| 2026-04-20 13:30 | -3.85585 | -32.42864 | 185 ft | 0 kts | 184° |
| 2026-04-20 13:32 | -3.85581 | -32.42863 | 185 ft | 1 kts | 184° |
| 2026-04-20 13:33 | -3.85573 | -32.42863 | 185 ft | 1 kts | 184° |
| 2026-04-20 13:33 | -3.85565 | -32.42862 | 199 ft | 1 kts | 184° |
| 2026-04-20 13:33 | -3.85557 | -32.42862 | 188 ft | 1 kts | 189° |
| 2026-04-20 13:33 | -3.85550 | -32.42861 | 193 ft | 1 kts | 212° |
| 2026-04-20 13:34 | -3.85546 | -32.42860 | 191 ft | 0 kts | 263° |
| 2026-04-20 13:36 | -3.85546 | -32.42865 | 197 ft | 4 kts | 263° |
| 2026-04-20 13:36 | -3.85539 | -32.42915 | 185 ft | 8 kts | 298° |
| 2026-04-20 13:37 | -3.85496 | -32.42950 | 187 ft | 8 kts | 324° |
| 2026-04-20 13:37 | -3.85485 | -32.42958 | 194 ft | 0 kts | 324° |
| 2026-04-20 13:38 | -3.85473 | -32.42967 | 200 ft | 5 kts | 324° |
| 2026-04-20 13:38 | -3.85439 | -32.42991 | 193 ft | 6 kts | 324° |
| 2026-04-20 13:38 | -3.85406 | -32.43017 | 203 ft | 6 kts | 314° |
| 2026-04-20 13:38 | -3.85389 | -32.43054 | 202 ft | 7 kts | 276° |
| 2026-04-20 13:39 | -3.85413 | -32.43097 | 205 ft | 8 kts | 224° |
| 2026-04-20 13:39 | -3.85409 | -32.43134 | 211 ft | 5 kts | 327° |
| 2026-04-20 13:39 | -3.85384 | -32.43133 | 206 ft | 3 kts | 58° |
| 2026-04-20 13:39 | -3.85385 | -32.43126 | 206 ft | 0 kts | 90° |
| 2026-04-20 13:40 | -3.85385 | -32.43125 | 206 ft | 2 kts | 90° |
| 2026-04-20 13:40 | -3.85402 | -32.42883 | 193 ft | 77 kts | 95° |
| 2026-04-20 13:40 | -3.85459 | -32.42097 | 201 ft | 144 kts | 94° |
| 2026-04-20 13:40 | -3.85527 | -32.40944 | 576 ft | 171 kts | 96° |
| 2026-04-20 13:41 | -3.85634 | -32.39840 | 1702 ft | 151 kts | 97° |
| 2026-04-20 13:41 | -3.85767 | -32.38748 | 2090 ft | 171 kts | 98° |
| 2026-04-20 13:41 | -3.85921 | -32.37483 | 2327 ft | 195 kts | 98° |
| 2026-04-20 13:41 | -3.86089 | -32.36064 | 2516 ft | 215 kts | 98° |
| 2026-04-20 13:42 | -3.86267 | -32.34515 | 2687 ft | 234 kts | 98° |
| 2026-04-20 13:42 | -3.86652 | -32.31159 | 3691 ft | 249 kts | 97° |
| 2026-04-20 13:42 | -3.86983 | -32.29465 | 4379 ft | 250 kts | 117° |
| 2026-04-20 13:43 | -3.88157 | -32.28213 | 5043 ft | 251 kts | 150° |
| 2026-04-20 13:43 | -3.89838 | -32.27719 | 5654 ft | 258 kts | 175° |
| 2026-04-20 13:43 | -3.91628 | -32.27985 | 6295 ft | 265 kts | 200° |
| 2026-04-20 13:43 | -3.93232 | -32.28934 | 6906 ft | 271 kts | 214° |
| 2026-04-20 13:44 | -3.94747 | -32.30093 | 7527 ft | 275 kts | 216° |
| 2026-04-20 13:44 | -3.96258 | -32.31295 | 8151 ft | 279 kts | 217° |
| 2026-04-20 13:44 | -3.97788 | -32.32518 | 8806 ft | 284 kts | 217° |
| 2026-04-20 13:44 | -3.99345 | -32.33758 | 9453 ft | 288 kts | 217° |
| 2026-04-20 13:45 | -4.00922 | -32.35008 | 10113 ft | 291 kts | 217° |
| 2026-04-20 13:45 | -4.02561 | -32.36300 | 10390 ft | 311 kts | 217° |
| 2026-04-20 13:45 | -4.04327 | -32.37686 | 10558 ft | 333 kts | 217° |
| 2026-04-20 13:45 | -4.06200 | -32.39154 | 10855 ft | 348 kts | 217° |
| 2026-04-20 13:46 | -4.08122 | -32.40659 | 11390 ft | 353 kts | 216° |
| 2026-04-20 13:46 | -4.10063 | -32.42179 | 12038 ft | 355 kts | 216° |
| 2026-04-20 13:46 | -4.12017 | -32.43708 | 12706 ft | 358 kts | 216° |
| 2026-04-20 13:46 | -4.13988 | -32.45248 | 13366 ft | 361 kts | 216° |
| 2026-04-20 13:47 | -4.16008 | -32.46758 | 13963 ft | 364 kts | 211° |
| 2026-04-20 13:47 | -4.18203 | -32.48042 | 14501 ft | 368 kts | 207° |
| 2026-04-20 13:47 | -4.20472 | -32.49262 | 15075 ft | 371 kts | 206° |
| 2026-04-20 13:47 | -4.22770 | -32.50473 | 15652 ft | 375 kts | 206° |
| 2026-04-20 13:48 | -4.25089 | -32.51697 | 16221 ft | 379 kts | 206° |
| 2026-04-20 13:48 | -4.27425 | -32.52941 | 16783 ft | 383 kts | 206° |
| 2026-04-20 13:48 | -4.29787 | -32.54209 | 17333 ft | 387 kts | 207° |
| 2026-04-20 13:48 | -4.32170 | -32.55497 | 17881 ft | 391 kts | 207° |
| 2026-04-20 13:49 | -4.34568 | -32.56800 | 18392 ft | 394 kts | 207° |
| 2026-04-20 13:49 | -4.36986 | -32.58118 | 18871 ft | 397 kts | 207° |
| 2026-04-20 13:49 | -4.39418 | -32.59445 | 19360 ft | 399 kts | 207° |
| 2026-04-20 13:49 | -4.41865 | -32.60782 | 19834 ft | 402 kts | 207° |
| 2026-04-20 13:50 | -4.44332 | -32.62131 | 20306 ft | 405 kts | 207° |
| 2026-04-20 13:50 | -4.46817 | -32.63489 | 20756 ft | 408 kts | 207° |
| 2026-04-20 13:50 | -4.49285 | -32.64838 | 21204 ft | 411 kts | 207° |
| 2026-04-20 13:50 | -4.51795 | -32.66211 | 21652 ft | 413 kts | 207° |
| 2026-04-20 13:51 | -4.54328 | -32.67596 | 22097 ft | 416 kts | 207° |
| 2026-04-20 13:51 | -4.56881 | -32.68992 | 22526 ft | 419 kts | 207° |
| 2026-04-20 13:51 | -4.59445 | -32.70394 | 22946 ft | 421 kts | 207° |
| 2026-04-20 13:51 | -4.62027 | -32.71806 | 23349 ft | 424 kts | 207° |
| 2026-04-20 13:52 | -4.64629 | -32.73229 | 23717 ft | 426 kts | 207° |
| 2026-04-20 13:52 | -4.67236 | -32.74655 | 24055 ft | 428 kts | 207° |
| 2026-04-20 13:52 | -4.69860 | -32.76091 | 24397 ft | 430 kts | 207° |
| 2026-04-20 13:52 | -4.72489 | -32.77529 | 24723 ft | 432 kts | 207° |
| 2026-04-20 13:53 | -4.75138 | -32.78978 | 25057 ft | 434 kts | 207° |
| 2026-04-20 13:53 | -4.77791 | -32.80430 | 25394 ft | 436 kts | 207° |
| 2026-04-20 13:53 | -4.80468 | -32.81895 | 25701 ft | 438 kts | 207° |
| 2026-04-20 13:53 | -4.83119 | -32.83345 | 26007 ft | 441 kts | 207° |
| 2026-04-20 13:54 | -4.85850 | -32.84840 | 26318 ft | 443 kts | 207° |
| 2026-04-20 13:54 | -4.88562 | -32.86324 | 26638 ft | 445 kts | 207° |
| 2026-04-20 13:54 | -4.91247 | -32.87794 | 26936 ft | 447 kts | 207° |
| 2026-04-20 13:54 | -4.93979 | -32.89290 | 27241 ft | 448 kts | 207° |
| 2026-04-20 13:55 | -4.96722 | -32.90792 | 27585 ft | 449 kts | 207° |
| 2026-04-20 13:55 | -4.99471 | -32.92297 | 27880 ft | 451 kts | 207° |
| 2026-04-20 13:55 | -5.02234 | -32.93810 | 28160 ft | 453 kts | 207° |
| 2026-04-20 13:55 | -5.05014 | -32.95333 | 28435 ft | 455 kts | 207° |
| 2026-04-20 13:56 | -5.07795 | -32.96856 | 28704 ft | 457 kts | 207° |
| 2026-04-20 13:56 | -5.10600 | -32.98392 | 28981 ft | 459 kts | 207° |
| 2026-04-20 13:56 | -5.13411 | -32.99932 | 29234 ft | 461 kts | 207° |
| 2026-04-20 13:56 | -5.16235 | -33.01479 | 29494 ft | 464 kts | 207° |
| 2026-04-20 13:57 | -5.19072 | -33.03034 | 29729 ft | 466 kts | 207° |
| 2026-04-20 13:57 | -5.21920 | -33.04595 | 29978 ft | 467 kts | 207° |
| 2026-04-20 13:57 | -5.24786 | -33.06165 | 30189 ft | 469 kts | 207° |
| 2026-04-20 13:57 | -5.27656 | -33.07738 | 30395 ft | 471 kts | 207° |
| 2026-04-20 13:58 | -5.30529 | -33.09313 | 30601 ft | 472 kts | 207° |
| 2026-04-20 13:58 | -5.33415 | -33.10895 | 30844 ft | 473 kts | 207° |
| 2026-04-20 13:58 | -5.36302 | -33.12479 | 31132 ft | 472 kts | 207° |
| 2026-04-20 13:58 | -5.39152 | -33.14042 | 31429 ft | 472 kts | 207° |
| 2026-04-20 13:59 | -5.42031 | -33.15621 | 31697 ft | 472 kts | 207° |
| 2026-04-20 13:59 | -5.44916 | -33.17203 | 31941 ft | 472 kts | 208° |
| 2026-04-20 13:59 | -5.47796 | -33.18783 | 32238 ft | 472 kts | 208° |
| 2026-04-20 13:59 | -5.50675 | -33.20362 | 32540 ft | 471 kts | 208° |
| 2026-04-20 14:00 | -5.53548 | -33.21939 | 32837 ft | 471 kts | 208° |
| 2026-04-20 14:00 | -5.56421 | -33.23515 | 33099 ft | 471 kts | 208° |
| 2026-04-20 14:00 | -5.59297 | -33.25093 | 33384 ft | 471 kts | 208° |
| 2026-04-20 14:00 | -5.62175 | -33.26673 | 33694 ft | 470 kts | 208° |
| 2026-04-20 14:01 | -5.65042 | -33.28247 | 33987 ft | 469 kts | 208° |
| 2026-04-20 14:01 | -5.67906 | -33.29819 | 34249 ft | 469 kts | 208° |
| 2026-04-20 14:01 | -5.70763 | -33.31387 | 34531 ft | 467 kts | 208° |
| 2026-04-20 14:01 | -5.73614 | -33.32953 | 34806 ft | 466 kts | 208° |
| 2026-04-20 14:02 | -5.76455 | -33.34513 | 35088 ft | 465 kts | 208° |
| 2026-04-20 14:02 | -5.79287 | -33.36068 | 35362 ft | 463 kts | 208° |
| 2026-04-20 14:02 | -5.82114 | -33.37621 | 35603 ft | 463 kts | 208° |
| 2026-04-20 14:02 | -5.84945 | -33.39176 | 35837 ft | 463 kts | 208° |
| 2026-04-20 14:03 | -5.90631 | -33.42300 | 35925 ft | 469 kts | 208° |
| 2026-04-20 14:03 | -5.96364 | -33.45451 | 35933 ft | 476 kts | 208° |
| 2026-04-20 14:04 | -6.02209 | -33.48663 | 35928 ft | 480 kts | 208° |
| 2026-04-20 14:04 | -6.08082 | -33.51893 | 35924 ft | 482 kts | 208° |
| 2026-04-20 14:05 | -6.13960 | -33.55126 | 35916 ft | 481 kts | 208° |
| 2026-04-20 14:05 | -6.19790 | -33.58333 | 35910 ft | 473 kts | 208° |
| 2026-04-20 14:06 | -6.25547 | -33.61501 | 35928 ft | 471 kts | 208° |
| 2026-04-20 14:06 | -6.31285 | -33.64659 | 35921 ft | 470 kts | 208° |
| 2026-04-20 14:07 | -6.37006 | -33.67808 | 35928 ft | 470 kts | 208° |
| 2026-04-20 14:07 | -6.42711 | -33.70950 | 35937 ft | 470 kts | 208° |
| 2026-04-20 14:08 | -6.48463 | -33.74118 | 35932 ft | 472 kts | 208° |
| 2026-04-20 14:08 | -6.54235 | -33.77298 | 35930 ft | 474 kts | 208° |
| 2026-04-20 14:09 | -6.60032 | -33.80493 | 35934 ft | 475 kts | 208° |
| 2026-04-20 14:09 | -6.65843 | -33.83696 | 35929 ft | 477 kts | 208° |
| 2026-04-20 14:10 | -6.71665 | -33.86907 | 35929 ft | 478 kts | 208° |
| 2026-04-20 14:10 | -6.77489 | -33.90119 | 35933 ft | 478 kts | 208° |
| 2026-04-20 14:11 | -6.83327 | -33.93340 | 35936 ft | 478 kts | 208° |
| 2026-04-20 14:11 | -6.89153 | -33.96555 | 35930 ft | 477 kts | 208° |
| 2026-04-20 14:12 | -6.94970 | -33.99766 | 35928 ft | 477 kts | 209° |
| 2026-04-20 14:12 | -7.00777 | -34.02973 | 35934 ft | 475 kts | 209° |
| 2026-04-20 14:13 | -7.06577 | -34.06176 | 35931 ft | 475 kts | 209° |
| 2026-04-20 14:13 | -7.12364 | -34.09374 | 35932 ft | 474 kts | 209° |
| 2026-04-20 14:14 | -7.18140 | -34.12566 | 35940 ft | 473 kts | 209° |
| 2026-04-20 14:14 | -7.23881 | -34.15739 | 35934 ft | 473 kts | 209° |
| 2026-04-20 14:15 | -7.29651 | -34.18930 | 35934 ft | 473 kts | 210° |
| 2026-04-20 14:15 | -7.35406 | -34.22114 | 35937 ft | 472 kts | 210° |
| 2026-04-20 14:16 | -7.41169 | -34.25303 | 35936 ft | 472 kts | 209° |
| 2026-04-20 14:16 | -7.46922 | -34.28487 | 35929 ft | 472 kts | 209° |
| 2026-04-20 14:17 | -7.52667 | -34.31668 | 35937 ft | 471 kts | 209° |
| 2026-04-20 14:17 | -7.58413 | -34.34851 | 35940 ft | 471 kts | 210° |
| 2026-04-20 14:18 | -7.64149 | -34.38028 | 35937 ft | 470 kts | 210° |
| 2026-04-20 14:18 | -7.69854 | -34.41191 | 35940 ft | 470 kts | 210° |
| 2026-04-20 14:19 | -7.75576 | -34.44378 | 35942 ft | 469 kts | 211° |
| 2026-04-20 14:19 | -7.80815 | -34.48260 | 35948 ft | 468 kts | 220° |
| 2026-04-20 14:20 | -7.85845 | -34.52410 | 35943 ft | 467 kts | 220° |
| 2026-04-20 14:20 | -7.90896 | -34.56527 | 35943 ft | 468 kts | 220° |
| 2026-04-20 14:21 | -7.95983 | -34.60615 | 35944 ft | 467 kts | 219° |
| 2026-04-20 14:21 | -8.01074 | -34.64694 | 35945 ft | 467 kts | 219° |
| 2026-04-20 14:22 | -8.06160 | -34.68772 | 35945 ft | 467 kts | 219° |
| 2026-04-20 14:22 | -8.11251 | -34.72858 | 35943 ft | 467 kts | 219° |
| 2026-04-20 14:23 | -8.16334 | -34.76940 | 35942 ft | 467 kts | 219° |
| 2026-04-20 14:23 | -8.20641 | -34.80234 | 35940 ft | 467 kts | 216° |
| 2026-04-20 14:24 | -8.26872 | -34.84546 | 35941 ft | 467 kts | 215° |
| 2026-04-20 14:24 | -8.31387 | -34.87640 | 35943 ft | 467 kts | 215° |
| 2026-04-20 14:25 | -8.36750 | -34.91359 | 35946 ft | 467 kts | 216° |
| 2026-04-20 14:25 | -8.42058 | -34.95068 | 35955 ft | 467 kts | 216° |
| 2026-04-20 14:26 | -8.47394 | -34.98802 | 35949 ft | 467 kts | 216° |
| 2026-04-20 14:26 | -8.52730 | -35.02537 | 35947 ft | 466 kts | 216° |
| 2026-04-20 14:27 | -8.58051 | -35.06261 | 35949 ft | 465 kts | 216° |
| 2026-04-20 14:27 | -8.63371 | -35.09986 | 35951 ft | 465 kts | 216° |
| 2026-04-20 14:28 | -8.68690 | -35.13710 | 35953 ft | 464 kts | 216° |
| 2026-04-20 14:28 | -8.73990 | -35.17424 | 35953 ft | 463 kts | 216° |
| 2026-04-20 14:29 | -8.79279 | -35.21131 | 35951 ft | 463 kts | 216° |
| 2026-04-20 14:29 | -8.84564 | -35.24838 | 35957 ft | 462 kts | 216° |
| 2026-04-20 14:30 | -8.89849 | -35.28545 | 35949 ft | 462 kts | 216° |
| 2026-04-20 14:30 | -8.95113 | -35.32247 | 35957 ft | 461 kts | 216° |
| 2026-04-20 14:31 | -9.00347 | -35.35934 | 35959 ft | 460 kts | 217° |
| 2026-04-20 14:31 | -9.05594 | -35.39631 | 35954 ft | 460 kts | 217° |
| 2026-04-20 14:32 | -9.10855 | -35.43338 | 35957 ft | 460 kts | 217° |
| 2026-04-20 14:32 | -9.16094 | -35.47033 | 35959 ft | 459 kts | 217° |
| 2026-04-20 14:33 | -9.21343 | -35.50734 | 35960 ft | 459 kts | 217° |
| 2026-04-20 14:33 | -9.26587 | -35.54428 | 35964 ft | 459 kts | 217° |
| 2026-04-20 14:34 | -9.31826 | -35.58115 | 35952 ft | 458 kts | 217° |
| 2026-04-20 14:34 | -9.37018 | -35.61772 | 35955 ft | 457 kts | 217° |
| 2026-04-20 14:35 | -9.42259 | -35.65465 | 35968 ft | 456 kts | 217° |
| 2026-04-20 14:35 | -9.47431 | -35.69112 | 35964 ft | 455 kts | 217° |
| 2026-04-20 14:36 | -9.52624 | -35.72776 | 35965 ft | 455 kts | 217° |
| 2026-04-20 14:36 | -9.57822 | -35.76444 | 35968 ft | 454 kts | 217° |
| 2026-04-20 14:37 | -9.63001 | -35.80101 | 35965 ft | 454 kts | 217° |
| 2026-04-20 14:37 | -9.68185 | -35.83762 | 35964 ft | 454 kts | 217° |
| 2026-04-20 14:38 | -9.73365 | -35.87421 | 35965 ft | 454 kts | 217° |
| 2026-04-20 14:38 | -9.78558 | -35.91092 | 35961 ft | 454 kts | 217° |
| 2026-04-20 14:39 | -9.83751 | -35.94764 | 35962 ft | 454 kts | 217° |
| 2026-04-20 14:39 | -9.88933 | -35.98428 | 35959 ft | 454 kts | 217° |
| 2026-04-20 14:40 | -9.94117 | -36.02097 | 35961 ft | 454 kts | 217° |
| 2026-04-20 14:40 | -9.99293 | -36.05761 | 35960 ft | 453 kts | 217° |
| 2026-04-20 14:41 | -10.04430 | -36.09399 | 35960 ft | 453 kts | 217° |
| 2026-04-20 14:41 | -10.09598 | -36.13059 | 35969 ft | 452 kts | 217° |
| 2026-04-20 14:42 | -10.14754 | -36.16714 | 35964 ft | 452 kts | 217° |
| 2026-04-20 14:42 | -10.19900 | -36.20362 | 35955 ft | 451 kts | 217° |
| 2026-04-20 14:43 | -10.25031 | -36.24002 | 35957 ft | 449 kts | 217° |
| 2026-04-20 14:43 | -10.30143 | -36.27629 | 35958 ft | 448 kts | 217° |
| 2026-04-20 14:44 | -10.35251 | -36.31255 | 35974 ft | 447 kts | 218° |
| 2026-04-20 14:44 | -10.40347 | -36.34875 | 35960 ft | 447 kts | 217° |
| 2026-04-20 14:45 | -10.45435 | -36.38489 | 35959 ft | 446 kts | 218° |
| 2026-04-20 14:45 | -10.50522 | -36.42105 | 35965 ft | 446 kts | 218° |
| 2026-04-20 14:46 | -10.55602 | -36.45717 | 35957 ft | 446 kts | 218° |
| 2026-04-20 14:46 | -10.60692 | -36.49339 | 35957 ft | 446 kts | 218° |
| 2026-04-20 14:47 | -10.65787 | -36.52964 | 35964 ft | 446 kts | 218° |
| 2026-04-20 14:48 | -10.73419 | -36.58399 | 35956 ft | 447 kts | 218° |
| 2026-04-20 14:48 | -10.78480 | -36.62005 | 35956 ft | 447 kts | 218° |
| 2026-04-20 14:49 | -10.83571 | -36.65634 | 35957 ft | 447 kts | 218° |
| 2026-04-20 14:49 | -10.88661 | -36.69281 | 35959 ft | 447 kts | 218° |
| 2026-04-20 14:50 | -10.93743 | -36.72934 | 35960 ft | 447 kts | 218° |
| 2026-04-20 14:50 | -10.98822 | -36.76586 | 35962 ft | 447 kts | 218° |
| 2026-04-20 14:51 | -11.03915 | -36.80248 | 35965 ft | 448 kts | 218° |
| 2026-04-20 14:51 | -11.09004 | -36.83908 | 35958 ft | 448 kts | 218° |
| 2026-04-20 14:52 | -11.14062 | -36.87548 | 35960 ft | 448 kts | 218° |
| 2026-04-20 14:52 | -11.19148 | -36.91209 | 35959 ft | 448 kts | 218° |
| 2026-04-20 14:53 | -11.24235 | -36.94872 | 35963 ft | 448 kts | 218° |
| 2026-04-20 14:53 | -11.29323 | -36.98538 | 35960 ft | 448 kts | 218° |
| 2026-04-20 14:54 | -11.34412 | -37.02206 | 35963 ft | 448 kts | 218° |
| 2026-04-20 14:54 | -11.39494 | -37.05871 | 35960 ft | 448 kts | 218° |
| 2026-04-20 14:55 | -11.44577 | -37.09538 | 35969 ft | 448 kts | 218° |
| 2026-04-20 14:55 | -11.49667 | -37.13212 | 35955 ft | 448 kts | 218° |
| 2026-04-20 14:56 | -11.54728 | -37.16867 | 35958 ft | 447 kts | 218° |
| 2026-04-20 14:56 | -11.59810 | -37.20538 | 35969 ft | 447 kts | 218° |
| 2026-04-20 14:57 | -11.64891 | -37.24210 | 35966 ft | 447 kts | 218° |
| 2026-04-20 14:57 | -11.69960 | -37.27876 | 35976 ft | 446 kts | 218° |
| 2026-04-20 14:58 | -11.75025 | -37.31541 | 35964 ft | 446 kts | 218° |
| 2026-04-20 14:58 | -11.80055 | -37.35182 | 35967 ft | 446 kts | 218° |
| 2026-04-20 14:59 | -11.85112 | -37.38844 | 35982 ft | 446 kts | 218° |
| 2026-04-20 14:59 | -11.90170 | -37.42509 | 35969 ft | 445 kts | 218° |
| 2026-04-20 15:00 | -11.95256 | -37.46132 | 35973 ft | 446 kts | 217° |
| 2026-04-20 15:00 | -12.00461 | -37.49597 | 35973 ft | 446 kts | 216° |
| 2026-04-20 15:01 | -12.05671 | -37.53034 | 35973 ft | 445 kts | 216° |
| 2026-04-20 15:01 | -12.10863 | -37.56488 | 35972 ft | 445 kts | 216° |
| 2026-04-20 15:02 | -12.16041 | -37.59953 | 35976 ft | 444 kts | 216° |
| 2026-04-20 15:02 | -12.21217 | -37.63424 | 35975 ft | 444 kts | 216° |
| 2026-04-20 15:03 | -12.26378 | -37.66886 | 35972 ft | 444 kts | 216° |
| 2026-04-20 15:03 | -12.31508 | -37.70330 | 35973 ft | 444 kts | 216° |
| 2026-04-20 15:04 | -12.36673 | -37.73797 | 35978 ft | 444 kts | 216° |
| 2026-04-20 15:04 | -12.41838 | -37.77267 | 35976 ft | 444 kts | 216° |
| 2026-04-20 15:05 | -12.46995 | -37.80733 | 35980 ft | 444 kts | 216° |
| 2026-04-20 15:05 | -12.52154 | -37.84201 | 35982 ft | 444 kts | 216° |
| 2026-04-20 15:06 | -12.57317 | -37.87674 | 35975 ft | 444 kts | 216° |
| 2026-04-20 15:06 | -12.62477 | -37.91147 | 35981 ft | 444 kts | 216° |
| 2026-04-20 15:07 | -12.67604 | -37.94599 | 35976 ft | 444 kts | 216° |
| 2026-04-20 15:07 | -12.72764 | -37.98075 | 35983 ft | 444 kts | 216° |
| 2026-04-20 15:08 | -12.77935 | -38.01561 | 35979 ft | 445 kts | 217° |
| 2026-04-20 15:08 | -12.83098 | -38.05042 | 35980 ft | 443 kts | 217° |
| 2026-04-20 15:09 | -12.88240 | -38.08510 | 35975 ft | 436 kts | 217° |
| 2026-04-20 15:09 | -12.90733 | -38.10189 | 35893 ft | 425 kts | 217° |
| 2026-04-20 15:09 | -12.93177 | -38.11836 | 35592 ft | 417 kts | 217° |
| 2026-04-20 15:09 | -12.95584 | -38.13460 | 35201 ft | 412 kts | 217° |
| 2026-04-20 15:10 | -12.97970 | -38.15073 | 34826 ft | 409 kts | 217° |
| 2026-04-20 15:10 | -13.00339 | -38.16675 | 34447 ft | 406 kts | 217° |
| 2026-04-20 15:10 | -13.02691 | -38.18265 | 34040 ft | 404 kts | 217° |
| 2026-04-20 15:10 | -13.05004 | -38.19829 | 33608 ft | 402 kts | 217° |
| 2026-04-20 15:11 | -13.07327 | -38.21401 | 33214 ft | 398 kts | 217° |
| 2026-04-20 15:11 | -13.09620 | -38.22950 | 32982 ft | 395 kts | 217° |
| 2026-04-20 15:11 | -13.11944 | -38.24526 | 32752 ft | 406 kts | 217° |
| 2026-04-20 15:11 | -13.14336 | -38.26149 | 32526 ft | 417 kts | 217° |
| 2026-04-20 15:12 | -13.16764 | -38.27794 | 32169 ft | 417 kts | 217° |
| 2026-04-20 15:12 | -13.19172 | -38.29422 | 31785 ft | 413 kts | 217° |
| 2026-04-20 15:12 | -13.20790 | -38.30515 | 31486 ft | 411 kts | 217° |
| 2026-04-20 15:12 | -13.23169 | -38.32124 | 31087 ft | 408 kts | 216° |
| 2026-04-20 15:13 | -13.25511 | -38.33708 | 30689 ft | 407 kts | 217° |
| 2026-04-20 15:13 | -13.27871 | -38.35307 | 30252 ft | 406 kts | 217° |
| 2026-04-20 15:13 | -13.30221 | -38.36899 | 29777 ft | 405 kts | 217° |
| 2026-04-20 15:13 | -13.32564 | -38.38487 | 29305 ft | 402 kts | 217° |
| 2026-04-20 15:14 | -13.34888 | -38.40062 | 28863 ft | 398 kts | 217° |
| 2026-04-20 15:14 | -13.37189 | -38.41621 | 28421 ft | 395 kts | 217° |
| 2026-04-20 15:14 | -13.39470 | -38.43168 | 27988 ft | 391 kts | 217° |
| 2026-04-20 15:14 | -13.41733 | -38.44703 | 27567 ft | 388 kts | 217° |
| 2026-04-20 15:15 | -13.43980 | -38.46228 | 27148 ft | 385 kts | 217° |
| 2026-04-20 15:15 | -13.46203 | -38.47737 | 26741 ft | 383 kts | 217° |
| 2026-04-20 15:15 | -13.48421 | -38.49243 | 26312 ft | 380 kts | 217° |
| 2026-04-20 15:15 | -13.50621 | -38.50737 | 25924 ft | 379 kts | 217° |
| 2026-04-20 15:16 | -13.52820 | -38.52231 | 25486 ft | 378 kts | 217° |
| 2026-04-20 15:16 | -13.55008 | -38.53718 | 25070 ft | 376 kts | 217° |
| 2026-04-20 15:16 | -13.57187 | -38.55198 | 24641 ft | 375 kts | 217° |
| 2026-04-20 15:16 | -13.59357 | -38.56674 | 24235 ft | 374 kts | 217° |
| 2026-04-20 15:17 | -13.61534 | -38.58154 | 23825 ft | 374 kts | 217° |
| 2026-04-20 15:17 | -13.63698 | -38.59625 | 23368 ft | 373 kts | 217° |
| 2026-04-20 15:17 | -13.65862 | -38.61097 | 22923 ft | 371 kts | 217° |
| 2026-04-20 15:17 | -13.68006 | -38.62555 | 22504 ft | 369 kts | 217° |
| 2026-04-20 15:18 | -13.70147 | -38.64012 | 22097 ft | 367 kts | 217° |
| 2026-04-20 15:18 | -13.72238 | -38.65435 | 21697 ft | 364 kts | 216° |
| 2026-04-20 15:18 | -13.74343 | -38.66869 | 21292 ft | 362 kts | 216° |
| 2026-04-20 15:18 | -13.76442 | -38.68298 | 20899 ft | 360 kts | 216° |
| 2026-04-20 15:19 | -13.78524 | -38.69716 | 20504 ft | 358 kts | 216° |
| 2026-04-20 15:19 | -13.80596 | -38.71127 | 20105 ft | 357 kts | 216° |
| 2026-04-20 15:19 | -13.82660 | -38.72531 | 19708 ft | 355 kts | 216° |
| 2026-04-20 15:19 | -13.84800 | -38.73848 | 19032 ft | 364 kts | 211° |
| 2026-04-20 15:20 | -13.87051 | -38.75063 | 18558 ft | 365 kts | 210° |
| 2026-04-20 15:20 | -13.89325 | -38.76244 | 18093 ft | 365 kts | 209° |
| 2026-04-20 15:20 | -13.91580 | -38.77410 | 17660 ft | 362 kts | 209° |
| 2026-04-20 15:20 | -13.93819 | -38.78577 | 17256 ft | 359 kts | 209° |
| 2026-04-20 15:21 | -13.96031 | -38.79740 | 16863 ft | 356 kts | 209° |
| 2026-04-20 15:21 | -13.98225 | -38.80902 | 16480 ft | 353 kts | 209° |
| 2026-04-20 15:21 | -14.00396 | -38.82058 | 16098 ft | 350 kts | 209° |
| 2026-04-20 15:21 | -14.02541 | -38.83203 | 15723 ft | 347 kts | 209° |
| 2026-04-20 15:22 | -14.04674 | -38.84343 | 15339 ft | 344 kts | 209° |
| 2026-04-20 15:22 | -14.06771 | -38.85466 | 14966 ft | 334 kts | 209° |
| 2026-04-20 15:22 | -14.08814 | -38.86560 | 14613 ft | 328 kts | 209° |
| 2026-04-20 15:22 | -14.10834 | -38.87642 | 14267 ft | 327 kts | 209° |
| 2026-04-20 15:23 | -14.12848 | -38.88722 | 13897 ft | 326 kts | 209° |
| 2026-04-20 15:23 | -14.14856 | -38.89799 | 13523 ft | 325 kts | 208° |
| 2026-04-20 15:23 | -14.16858 | -38.90872 | 13145 ft | 323 kts | 208° |
| 2026-04-20 15:23 | -14.18847 | -38.91939 | 12770 ft | 321 kts | 208° |
| 2026-04-20 15:24 | -14.20823 | -38.92999 | 12414 ft | 319 kts | 208° |
| 2026-04-20 15:24 | -14.22782 | -38.94051 | 12063 ft | 316 kts | 208° |
| 2026-04-20 15:24 | -14.24727 | -38.95095 | 11715 ft | 314 kts | 208° |
| 2026-04-20 15:24 | -14.26660 | -38.96133 | 11368 ft | 313 kts | 207° |
| 2026-04-20 15:25 | -14.28583 | -38.97165 | 11025 ft | 311 kts | 207° |
| 2026-04-20 15:25 | -14.30496 | -38.98193 | 10683 ft | 309 kts | 206° |
| 2026-04-20 15:25 | -14.32395 | -38.99212 | 10369 ft | 306 kts | 206° |
| 2026-04-20 15:25 | -14.34255 | -39.00212 | 10238 ft | 297 kts | 206° |
| 2026-04-20 15:26 | -14.36058 | -39.01181 | 10098 ft | 289 kts | 206° |
| 2026-04-20 15:26 | -14.37821 | -39.02128 | 9941 ft | 282 kts | 206° |
| 2026-04-20 15:26 | -14.39539 | -39.03052 | 9628 ft | 281 kts | 206° |
| 2026-04-20 15:26 | -14.41270 | -39.03981 | 9327 ft | 279 kts | 206° |
| 2026-04-20 15:27 | -14.42988 | -39.04905 | 9045 ft | 278 kts | 206° |
| 2026-04-20 15:27 | -14.44701 | -39.05826 | 8758 ft | 276 kts | 206° |
| 2026-04-20 15:27 | -14.46400 | -39.06739 | 8474 ft | 275 kts | 206° |
| 2026-04-20 15:27 | -14.48095 | -39.07651 | 8170 ft | 274 kts | 206° |
| 2026-04-20 15:28 | -14.49775 | -39.08556 | 7903 ft | 272 kts | 206° |
| 2026-04-20 15:28 | -14.51447 | -39.09456 | 7630 ft | 270 kts | 206° |
| 2026-04-20 15:28 | -14.53108 | -39.10351 | 7346 ft | 269 kts | 206° |
| 2026-04-20 15:28 | -14.54760 | -39.11241 | 7068 ft | 268 kts | 206° |
| 2026-04-20 15:29 | -14.56409 | -39.12128 | 6784 ft | 266 kts | 206° |
| 2026-04-20 15:29 | -14.58050 | -39.13013 | 6502 ft | 266 kts | 206° |
| 2026-04-20 15:29 | -14.59690 | -39.13898 | 6210 ft | 266 kts | 206° |
| 2026-04-20 15:29 | -14.61332 | -39.14783 | 5911 ft | 265 kts | 205° |
| 2026-04-20 15:30 | -14.62961 | -39.15662 | 5638 ft | 263 kts | 206° |
| 2026-04-20 15:30 | -14.64578 | -39.16533 | 5364 ft | 262 kts | 205° |
| 2026-04-20 15:30 | -14.66194 | -39.17405 | 5084 ft | 261 kts | 205° |
| 2026-04-20 15:30 | -14.67802 | -39.18271 | 4823 ft | 259 kts | 206° |
| 2026-04-20 15:31 | -14.69377 | -39.19123 | 4545 ft | 252 kts | 205° |
| 2026-04-20 15:31 | -14.70910 | -39.19950 | 4224 ft | 245 kts | 205° |
| 2026-04-20 15:31 | -14.72383 | -39.20745 | 4099 ft | 233 kts | 205° |
| 2026-04-20 15:31 | -14.73816 | -39.21412 | 3914 ft | 221 kts | 190° |
| 2026-04-20 15:32 | -14.75294 | -39.21422 | 3751 ft | 210 kts | 175° |
| 2026-04-20 15:32 | -14.76745 | -39.21372 | 3474 ft | 206 kts | 176° |
| 2026-04-20 15:32 | -14.78146 | -39.21334 | 3266 ft | 196 kts | 176° |
| 2026-04-20 15:32 | -14.79479 | -39.21298 | 3032 ft | 188 kts | 178° |
| 2026-04-20 15:33 | -14.80748 | -39.21184 | 2816 ft | 178 kts | 159° |
| 2026-04-20 15:33 | -14.81648 | -39.20422 | 2662 ft | 163 kts | 122° |
| 2026-04-20 15:33 | -14.81985 | -39.19352 | 2490 ft | 156 kts | 93° |
| 2026-04-20 15:33 | -14.81973 | -39.18147 | 2455 ft | 191 kts | 91° |
| 2026-04-20 15:34 | -14.81948 | -39.16690 | 2245 ft | 204 kts | 92° |
| 2026-04-20 15:34 | -14.81914 | -39.15262 | 2144 ft | 191 kts | 91° |
| 2026-04-20 15:34 | -14.81878 | -39.13940 | 2052 ft | 178 kts | 90° |
| 2026-04-20 15:34 | -14.81845 | -39.12681 | 1813 ft | 174 kts | 90° |
| 2026-04-20 15:35 | -14.81812 | -39.11419 | 1481 ft | 172 kts | 91° |
| 2026-04-20 15:35 | -14.81778 | -39.10219 | 1268 ft | 161 kts | 92° |
| 2026-04-20 15:35 | -14.81749 | -39.09081 | 1059 ft | 156 kts | 92° |
| 2026-04-20 15:35 | -14.81718 | -39.07969 | 818 ft | 151 kts | 92° |
| 2026-04-20 15:36 | -14.81689 | -39.06870 | 622 ft | 155 kts | 93° |
| 2026-04-20 15:36 | -14.81659 | -39.05766 | 436 ft | 153 kts | 92° |
| 2026-04-20 15:36 | -14.81623 | -39.04666 | 138 ft | 153 kts | 88° |
| 2026-04-20 15:36 | -14.81596 | -39.03615 | 21 ft | 135 kts | 86° |
| 2026-04-20 15:37 | -14.81580 | -39.02908 | 17 ft | 39 kts | 89° |
| 2026-04-20 15:37 | -14.81577 | -39.02693 | 18 ft | 22 kts | 98° |
| 2026-04-20 15:37 | -14.81584 | -39.02602 | 20 ft | 3 kts | 356° |
| 2026-04-20 15:37 | -14.81578 | -39.02622 | 19 ft | 5 kts | 275° |
| 2026-04-20 15:38 | -14.81577 | -39.02712 | 18 ft | 18 kts | 269° |
| 2026-04-20 15:38 | -14.81580 | -39.02844 | 17 ft | 18 kts | 269° |
| 2026-04-20 15:38 | -14.81583 | -39.02973 | 17 ft | 18 kts | 268° |
| 2026-04-20 15:38 | -14.81556 | -39.03082 | 17 ft | 14 kts | 338° |
| 2026-04-20 15:39 | -14.81511 | -39.03085 | 17 ft | 0 kts | 358° |
| 2026-04-20 15:39 | -14.81506 | -39.03085 | 17 ft | 4 kts | 356° |
| 2026-04-20 15:39 | -14.81483 | -39.03135 | 18 ft | 12 kts | 271° |
| 2026-04-20 15:40 | -14.81483 | -39.03172 | 18 ft | 0 kts | 273° |
| 2026-04-20 15:40 | -14.81482 | -39.03190 | 18 ft | 4 kts | 284° |
| 2026-04-20 15:40 | -14.81471 | -39.03194 | 19 ft | 1 kts | 348° |
| 2026-04-20 15:40 | -14.81462 | -39.03195 | 18 ft | 1 kts | 353° |
| 2026-04-20 15:41 | -14.81453 | -39.03199 | 19 ft | 2 kts | 332° |
| 2026-04-20 15:41 | -14.81445 | -39.03207 | 20 ft | 2 kts | 312° |
| 2026-04-20 15:41 | -14.81444 | -39.03208 | 20 ft | 0 kts | 312° |